首页
METAR-TAF:

METAR-TAF

机场 :

里尔, 法国

纬度: 50-34N, 经度: 003-06E, 海拔: 48米

当前天气观测

该预报发布于22分钟前的09:00 UTC
风速20节,风向
温度 7°C
湿度 57%
气压 1030 hPa
能见度10公里或以上
散云层高于3500英尺
散云层高于4400英尺

METAR: LFQQ 290900Z AUTO 01020KT 9999 SCT035 SCT044 07/M01 Q1030 TEMPO 4000 SHRA BKN040TCU BECMG 03025G37KT

时间: 11:22 (09:22 UTC)

预报

该预报发布于3小时和27分钟前的05:55 UTC
预报有效从29日的 06点(UTC)到 30日的 12点(UTC)
风速15节,风向,有时为25节阵风
能见度10公里或以上
多云层高于3000英尺
短暂存在
从 29日的 06点(UTC)到 29日的 08点(UTC)
风速20节,风向,有时为35节阵风
能見度: 3000
多云层高于1300英尺
多云层高于3000英尺, 塔状积云.
阵雪, 雨
成为
从 29日的 08点(UTC)到 29日的 10点(UTC)
风速25节,风向北转东北,有时为37节阵风
几率 30% :
短暂存在
从 29日的 08点(UTC)到 29日的 12点(UTC)
能見度: 4000
多云层高于4000英尺, 塔状积云.
阵雨
成为
从 29日的 20点(UTC)到 29日的 22点(UTC)
风速15节,风向北转东北,有时为25节阵风
成为
从 30日的 00点(UTC)到 30日的 02点(UTC)
风速12节,风向北转东北

TAF: LFQQ 290555Z 2906/3012 01015G25KT 9999 BKN030 TEMPO 2906/2908 01020G35KT 3000 SHSNRA BKN013 BKN030TCU BECMG 2908/2910 03025G37KT PROB30 TEMPO 2908/2912 4000 SHRA BKN040TCU BECMG 2920/2922 03015G25KT BECMG 3000/3002 03012KT

超过4000个机场的气象观测和天气预报(METAR&TAF报告)。

可查询的气象台以黄色和红色小点在地图上表示。

将鼠标移到小点上方,可查看气象台名称。

然后点击查看天气观测和预报。

如需切换地图:点击带黑十字的绿色按钮放大地图;点击带横线的绿色按钮缩小地图;或者点击绿色箭头查看邻近地区的地图。


METAR-TAF: